sensor_id;sensor_type;location;lat;lon;timestamp;temperature;humidity
25963;DHT22;13760;52.588;13.406;2023-02-28T00:00:10;0.70;99.90
25963;DHT22;13760;52.588;13.406;2023-02-28T00:02:45;0.60;99.90
25963;DHT22;13760;52.588;13.406;2023-02-28T00:05:17;0.60;99.90
25963;DHT22;13760;52.588;13.406;2023-02-28T00:07:43;0.60;99.90
25963;DHT22;13760;52.588;13.406;2023-02-28T00:10:11;0.60;99.90
25963;DHT22;13760;52.588;13.406;2023-02-28T00:12:38;0.60;99.90
25963;DHT22;13760;52.588;13.406;2023-02-28T00:15:09;0.50;99.90
25963;DHT22;13760;52.588;13.406;2023-02-28T00:17:36;0.50;99.90
25963;DHT22;13760;52.588;13.406;2023-02-28T00:20:02;0.50;99.90
25963;DHT22;13760;52.588;13.406;2023-02-28T00:22:28;0.40;99.90
25963;DHT22;13760;52.588;13.406;2023-02-28T00:24:54;0.40;99.90
25963;DHT22;13760;52.588;13.406;2023-02-28T00:27:19;0.50;99.90
25963;DHT22;13760;52.588;13.406;2023-02-28T00:29:46;0.40;99.90
25963;DHT22;13760;52.588;13.406;2023-02-28T00:32:12;0.40;99.90
25963;DHT22;13760;52.588;13.406;2023-02-28T00:34:38;0.40;99.90
25963;DHT22;13760;52.588;13.406;2023-02-28T00:37:05;0.40;99.90
25963;DHT22;13760;52.588;13.406;2023-02-28T00:39:31;0.30;99.90
25963;DHT22;13760;52.588;13.406;2023-02-28T00:41:58;0.30;99.90
25963;DHT22;13760;52.588;13.406;2023-02-28T00:44:23;0.30;99.90
25963;DHT22;13760;52.588;13.406;2023-02-28T00:46:49;0.30;99.90
25963;DHT22;13760;52.588;13.406;2023-02-28T00:49:14;0.30;99.90
25963;DHT22;13760;52.588;13.406;2023-02-28T00:51:40;0.20;99.90
25963;DHT22;13760;52.588;13.406;2023-02-28T00:54:06;0.20;99.90
25963;DHT22;13760;52.588;13.406;2023-02-28T00:56:31;0.20;99.90
25963;DHT22;13760;52.588;13.406;2023-02-28T00:58:57;0.20;99.90
25963;DHT22;13760;52.588;13.406;2023-02-28T01:01:22;0.20;99.90
25963;DHT22;13760;52.588;13.406;2023-02-28T01:03:48;0.20;99.90
25963;DHT22;13760;52.588;13.406;2023-02-28T01:06:13;0.20;99.90
25963;DHT22;13760;52.588;13.406;2023-02-28T01:08:39;0.20;99.90
25963;DHT22;13760;52.588;13.406;2023-02-28T01:11:10;0.20;99.90
25963;DHT22;13760;52.588;13.406;2023-02-28T01:13:36;0.20;99.90
25963;DHT22;13760;52.588;13.406;2023-02-28T01:16:01;0.10;99.90
25963;DHT22;13760;52.588;13.406;2023-02-28T01:18:27;0.10;99.90
25963;DHT22;13760;52.588;13.406;2023-02-28T01:20:54;0.10;99.90
25963;DHT22;13760;52.588;13.406;2023-02-28T01:23:20;0.10;99.90
25963;DHT22;13760;52.588;13.406;2023-02-28T01:25:47;0.00;99.90
25963;DHT22;13760;52.588;13.406;2023-02-28T01:28:13;0.00;99.90
25963;DHT22;13760;52.588;13.406;2023-02-28T01:30:38;0.00;99.90
25963;DHT22;13760;52.588;13.406;2023-02-28T01:33:04;-0.10;99.90
25963;DHT22;13760;52.588;13.406;2023-02-28T01:35:32;-0.10;99.90
25963;DHT22;13760;52.588;13.406;2023-02-28T01:37:58;-0.20;99.90
25963;DHT22;13760;52.588;13.406;2023-02-28T01:40:24;-0.30;99.90
25963;DHT22;13760;52.588;13.406;2023-02-28T01:42:50;-0.30;99.90
25963;DHT22;13760;52.588;13.406;2023-02-28T01:45:28;-0.40;99.90
25963;DHT22;13760;52.588;13.406;2023-02-28T01:47:57;-0.40;99.90
25963;DHT22;13760;52.588;13.406;2023-02-28T01:50:27;-0.50;99.90
25963;DHT22;13760;52.588;13.406;2023-02-28T01:52:55;-0.50;99.90
25963;DHT22;13760;52.588;13.406;2023-02-28T01:55:25;-0.50;99.90
25963;DHT22;13760;52.588;13.406;2023-02-28T01:57:56;-0.60;99.90
25963;DHT22;13760;52.588;13.406;2023-02-28T02:00:24;-0.60;99.90
25963;DHT22;13760;52.588;13.406;2023-02-28T02:02:54;-0.60;99.90
25963;DHT22;13760;52.588;13.406;2023-02-28T02:05:27;-0.60;99.90
25963;DHT22;13760;52.588;13.406;2023-02-28T02:08:06;-0.60;99.90
25963;DHT22;13760;52.588;13.406;2023-02-28T02:10:36;-0.60;99.90
25963;DHT22;13760;52.588;13.406;2023-02-28T02:16:51;-0.70;99.90
25963;DHT22;13760;52.588;13.406;2023-02-28T02:25:11;-0.80;99.90
25963;DHT22;13760;52.588;13.406;2023-02-28T02:30:48;-0.90;99.90
25963;DHT22;13760;52.588;13.406;2023-02-28T02:36:39;-1.00;99.90
25963;DHT22;13760;52.588;13.406;2023-02-28T02:39:14;-1.10;99.90
25963;DHT22;13760;52.588;13.406;2023-02-28T02:41:51;-1.10;99.90
25963;DHT22;13760;52.588;13.406;2023-02-28T02:44:27;-1.20;99.90
25963;DHT22;13760;52.588;13.406;2023-02-28T02:47:00;-1.20;99.90
25963;DHT22;13760;52.588;13.406;2023-02-28T02:49:31;-1.20;99.90
25963;DHT22;13760;52.588;13.406;2023-02-28T02:52:04;-1.30;99.90
25963;DHT22;13760;52.588;13.406;2023-02-28T02:54:35;-1.30;99.90
25963;DHT22;13760;52.588;13.406;2023-02-28T02:57:04;-1.30;99.90
25963;DHT22;13760;52.588;13.406;2023-02-28T02:59:30;-1.30;99.90
25963;DHT22;13760;52.588;13.406;2023-02-28T03:02:02;-1.40;99.90
25963;DHT22;13760;52.588;13.406;2023-02-28T03:04:33;-1.40;99.90
25963;DHT22;13760;52.588;13.406;2023-02-28T03:07:00;-1.40;99.90
25963;DHT22;13760;52.588;13.406;2023-02-28T03:09:26;-1.50;99.90
25963;DHT22;13760;52.588;13.406;2023-02-28T03:11:54;-1.50;99.90
25963;DHT22;13760;52.588;13.406;2023-02-28T03:14:36;-1.50;99.90
25963;DHT22;13760;52.588;13.406;2023-02-28T03:20:15;-1.60;99.90
25963;DHT22;13760;52.588;13.406;2023-02-28T03:25:32;-1.70;99.90
25963;DHT22;13760;52.588;13.406;2023-02-28T03:28:16;-1.70;99.90
25963;DHT22;13760;52.588;13.406;2023-02-28T03:30:54;-1.70;99.90
25963;DHT22;13760;52.588;13.406;2023-02-28T03:33:24;-1.70;99.90
25963;DHT22;13760;52.588;13.406;2023-02-28T03:36:10;-1.80;99.90
25963;DHT22;13760;52.588;13.406;2023-02-28T03:39:04;-1.80;99.90
25963;DHT22;13760;52.588;13.406;2023-02-28T03:41:36;-1.90;99.90
25963;DHT22;13760;52.588;13.406;2023-02-28T03:44:21;-1.90;99.90
25963;DHT22;13760;52.588;13.406;2023-02-28T03:47:00;-1.90;99.90
25963;DHT22;13760;52.588;13.406;2023-02-28T03:49:51;-1.90;99.90
25963;DHT22;13760;52.588;13.406;2023-02-28T03:52:21;-1.90;99.90
25963;DHT22;13760;52.588;13.406;2023-02-28T03:54:51;-2.00;99.90
25963;DHT22;13760;52.588;13.406;2023-02-28T03:59:56;-2.00;99.90
25963;DHT22;13760;52.588;13.406;2023-02-28T04:02:23;-2.10;99.90
25963;DHT22;13760;52.588;13.406;2023-02-28T04:04:48;-2.10;99.90
25963;DHT22;13760;52.588;13.406;2023-02-28T04:07:15;-2.10;99.90
25963;DHT22;13760;52.588;13.406;2023-02-28T04:09:41;-2.20;99.90
25963;DHT22;13760;52.588;13.406;2023-02-28T04:12:07;-2.20;99.90
25963;DHT22;13760;52.588;13.406;2023-02-28T04:14:32;-2.20;99.90
25963;DHT22;13760;52.588;13.406;2023-02-28T04:16:58;-2.20;99.90
25963;DHT22;13760;52.588;13.406;2023-02-28T04:19:24;-2.20;99.90
25963;DHT22;13760;52.588;13.406;2023-02-28T04:21:51;-2.20;99.90
25963;DHT22;13760;52.588;13.406;2023-02-28T04:24:22;-2.30;99.90
25963;DHT22;13760;52.588;13.406;2023-02-28T04:26:50;-2.30;99.90
25963;DHT22;13760;52.588;13.406;2023-02-28T04:29:24;-2.30;99.90
25963;DHT22;13760;52.588;13.406;2023-02-28T04:31:51;-2.30;99.90
25963;DHT22;13760;52.588;13.406;2023-02-28T04:34:18;-2.40;99.90
25963;DHT22;13760;52.588;13.406;2023-02-28T04:36:44;-2.40;99.90
25963;DHT22;13760;52.588;13.406;2023-02-28T04:39:11;-2.40;99.90
25963;DHT22;13760;52.588;13.406;2023-02-28T04:41:37;-2.40;99.90
25963;DHT22;13760;52.588;13.406;2023-02-28T04:44:03;-2.40;99.90
25963;DHT22;13760;52.588;13.406;2023-02-28T04:46:28;-2.50;99.90
25963;DHT22;13760;52.588;13.406;2023-02-28T04:48:55;-2.50;99.90
25963;DHT22;13760;52.588;13.406;2023-02-28T04:51:21;-2.50;99.90
25963;DHT22;13760;52.588;13.406;2023-02-28T04:53:47;-2.50;99.90
25963;DHT22;13760;52.588;13.406;2023-02-28T04:56:14;-2.50;99.90
25963;DHT22;13760;52.588;13.406;2023-02-28T04:58:40;-2.50;99.90
25963;DHT22;13760;52.588;13.406;2023-02-28T05:01:16;-2.50;99.90
25963;DHT22;13760;52.588;13.406;2023-02-28T05:03:42;-2.60;99.90
25963;DHT22;13760;52.588;13.406;2023-02-28T05:06:11;-2.60;99.90
25963;DHT22;13760;52.588;13.406;2023-02-28T05:08:37;-2.60;99.90
25963;DHT22;13760;52.588;13.406;2023-02-28T05:11:03;-2.60;99.90
25963;DHT22;13760;52.588;13.406;2023-02-28T05:13:29;-2.70;99.90
25963;DHT22;13760;52.588;13.406;2023-02-28T05:15:55;-2.70;99.90
25963;DHT22;13760;52.588;13.406;2023-02-28T05:18:21;-2.70;99.90
25963;DHT22;13760;52.588;13.406;2023-02-28T05:20:47;-2.70;99.90
25963;DHT22;13760;52.588;13.406;2023-02-28T05:23:13;-2.70;99.90
25963;DHT22;13760;52.588;13.406;2023-02-28T05:25:40;-2.80;99.90
25963;DHT22;13760;52.588;13.406;2023-02-28T05:28:06;-2.80;99.90
25963;DHT22;13760;52.588;13.406;2023-02-28T05:30:33;-2.80;99.90
25963;DHT22;13760;52.588;13.406;2023-02-28T05:33:02;-2.80;99.90
25963;DHT22;13760;52.588;13.406;2023-02-28T05:35:28;-2.80;99.90
25963;DHT22;13760;52.588;13.406;2023-02-28T05:37:54;-2.80;99.90
25963;DHT22;13760;52.588;13.406;2023-02-28T05:40:19;-2.80;99.90
25963;DHT22;13760;52.588;13.406;2023-02-28T05:42:46;-2.80;99.90
25963;DHT22;13760;52.588;13.406;2023-02-28T05:45:12;-2.80;99.90
25963;DHT22;13760;52.588;13.406;2023-02-28T05:47:37;-2.90;99.90
25963;DHT22;13760;52.588;13.406;2023-02-28T05:50:04;-2.90;99.90
25963;DHT22;13760;52.588;13.406;2023-02-28T05:52:29;-2.90;99.90
25963;DHT22;13760;52.588;13.406;2023-02-28T05:54:56;-2.90;99.90
25963;DHT22;13760;52.588;13.406;2023-02-28T05:57:28;-2.90;99.90
25963;DHT22;13760;52.588;13.406;2023-02-28T05:59:56;-2.90;99.90
25963;DHT22;13760;52.588;13.406;2023-02-28T06:02:24;-3.00;99.90
25963;DHT22;13760;52.588;13.406;2023-02-28T06:04:49;-2.90;99.90
25963;DHT22;13760;52.588;13.406;2023-02-28T06:07:17;-3.00;99.90
25963;DHT22;13760;52.588;13.406;2023-02-28T06:09:43;-3.00;99.90
25963;DHT22;13760;52.588;13.406;2023-02-28T06:12:10;-3.00;99.90
25963;DHT22;13760;52.588;13.406;2023-02-28T06:14:36;-3.00;99.90
25963;DHT22;13760;52.588;13.406;2023-02-28T06:17:02;-3.00;99.90
25963;DHT22;13760;52.588;13.406;2023-02-28T06:19:28;-2.90;99.90
25963;DHT22;13760;52.588;13.406;2023-02-28T06:21:56;-3.00;99.90
25963;DHT22;13760;52.588;13.406;2023-02-28T06:24:23;-3.00;99.90
25963;DHT22;13760;52.588;13.406;2023-02-28T06:26:49;-3.00;99.90
25963;DHT22;13760;52.588;13.406;2023-02-28T06:29:15;-2.90;99.90
25963;DHT22;13760;52.588;13.406;2023-02-28T06:31:42;-2.90;99.90
25963;DHT22;13760;52.588;13.406;2023-02-28T06:34:09;-2.90;99.90
25963;DHT22;13760;52.588;13.406;2023-02-28T06:36:37;-2.90;99.90
25963;DHT22;13760;52.588;13.406;2023-02-28T06:39:02;-2.80;99.90
25963;DHT22;13760;52.588;13.406;2023-02-28T06:41:28;-2.80;99.90
25963;DHT22;13760;52.588;13.406;2023-02-28T06:43:54;-2.80;99.90
25963;DHT22;13760;52.588;13.406;2023-02-28T06:46:20;-2.80;99.90
25963;DHT22;13760;52.588;13.406;2023-02-28T06:48:46;-2.70;99.90
25963;DHT22;13760;52.588;13.406;2023-02-28T06:51:17;-2.70;99.90
25963;DHT22;13760;52.588;13.406;2023-02-28T06:53:43;-2.70;99.90
25963;DHT22;13760;52.588;13.406;2023-02-28T06:59:23;-2.70;99.90
25963;DHT22;13760;52.588;13.406;2023-02-28T07:01:49;-2.60;99.90
25963;DHT22;13760;52.588;13.406;2023-02-28T07:04:15;-2.60;99.90
25963;DHT22;13760;52.588;13.406;2023-02-28T07:06:40;-2.50;99.90
25963;DHT22;13760;52.588;13.406;2023-02-28T07:09:06;-2.40;99.90
25963;DHT22;13760;52.588;13.406;2023-02-28T07:11:31;-2.40;99.90
25963;DHT22;13760;52.588;13.406;2023-02-28T07:13:57;-2.30;99.90
25963;DHT22;13760;52.588;13.406;2023-02-28T07:16:24;-2.20;99.90
25963;DHT22;13760;52.588;13.406;2023-02-28T07:18:52;-2.20;99.90
25963;DHT22;13760;52.588;13.406;2023-02-28T07:21:18;-2.10;99.90
25963;DHT22;13760;52.588;13.406;2023-02-28T07:23:44;-2.00;99.90
25963;DHT22;13760;52.588;13.406;2023-02-28T07:26:15;-1.90;99.90
25963;DHT22;13760;52.588;13.406;2023-02-28T07:28:41;-1.90;99.90
25963;DHT22;13760;52.588;13.406;2023-02-28T07:31:08;-1.80;99.90
25963;DHT22;13760;52.588;13.406;2023-02-28T07:33:35;-1.70;99.90
25963;DHT22;13760;52.588;13.406;2023-02-28T07:36:15;-1.70;99.90
25963;DHT22;13760;52.588;13.406;2023-02-28T07:38:45;-1.60;99.90
25963;DHT22;13760;52.588;13.406;2023-02-28T07:41:14;-1.50;99.90
25963;DHT22;13760;52.588;13.406;2023-02-28T07:43:39;-1.40;99.90
25963;DHT22;13760;52.588;13.406;2023-02-28T07:46:08;-1.40;99.90
25963;DHT22;13760;52.588;13.406;2023-02-28T07:48:34;-1.30;99.90
25963;DHT22;13760;52.588;13.406;2023-02-28T07:51:00;-1.20;99.90
25963;DHT22;13760;52.588;13.406;2023-02-28T07:53:27;-1.10;99.90
25963;DHT22;13760;52.588;13.406;2023-02-28T07:55:56;-1.00;99.90
25963;DHT22;13760;52.588;13.406;2023-02-28T07:58:22;-1.00;99.90
25963;DHT22;13760;52.588;13.406;2023-02-28T08:00:48;-0.90;99.90
25963;DHT22;13760;52.588;13.406;2023-02-28T08:03:13;-0.80;99.90
25963;DHT22;13760;52.588;13.406;2023-02-28T08:05:39;-0.70;99.90
25963;DHT22;13760;52.588;13.406;2023-02-28T08:08:06;-0.60;99.90
25963;DHT22;13760;52.588;13.406;2023-02-28T08:10:32;-0.50;99.90
25963;DHT22;13760;52.588;13.406;2023-02-28T08:12:58;-0.30;99.90
25963;DHT22;13760;52.588;13.406;2023-02-28T08:15:23;-0.20;99.90
25963;DHT22;13760;52.588;13.406;2023-02-28T08:17:49;-0.10;99.90
25963;DHT22;13760;52.588;13.406;2023-02-28T08:20:14;0.10;99.90
25963;DHT22;13760;52.588;13.406;2023-02-28T08:22:40;0.20;99.90
25963;DHT22;13760;52.588;13.406;2023-02-28T08:25:07;0.40;99.90
25963;DHT22;13760;52.588;13.406;2023-02-28T08:27:33;0.50;99.90
25963;DHT22;13760;52.588;13.406;2023-02-28T08:29:59;0.60;99.90
25963;DHT22;13760;52.588;13.406;2023-02-28T08:32:24;0.80;99.90
25963;DHT22;13760;52.588;13.406;2023-02-28T08:34:50;1.00;99.90
25963;DHT22;13760;52.588;13.406;2023-02-28T08:37:16;1.20;99.90
25963;DHT22;13760;52.588;13.406;2023-02-28T08:39:42;1.40;99.90
25963;DHT22;13760;52.588;13.406;2023-02-28T08:42:08;1.60;99.90
25963;DHT22;13760;52.588;13.406;2023-02-28T08:44:37;1.80;99.90
25963;DHT22;13760;52.588;13.406;2023-02-28T08:47:05;1.90;99.90
25963;DHT22;13760;52.588;13.406;2023-02-28T08:49:30;2.10;99.90
25963;DHT22;13760;52.588;13.406;2023-02-28T08:51:56;2.30;99.90
25963;DHT22;13760;52.588;13.406;2023-02-28T08:54:22;2.40;99.90
25963;DHT22;13760;52.588;13.406;2023-02-28T08:56:48;2.60;99.90
25963;DHT22;13760;52.588;13.406;2023-02-28T08:59:14;2.80;99.90
25963;DHT22;13760;52.588;13.406;2023-02-28T09:01:40;2.90;99.90
25963;DHT22;13760;52.588;13.406;2023-02-28T09:04:07;3.10;99.90
25963;DHT22;13760;52.588;13.406;2023-02-28T09:06:34;3.20;99.90
25963;DHT22;13760;52.588;13.406;2023-02-28T09:08:59;3.40;99.90
25963;DHT22;13760;52.588;13.406;2023-02-28T09:11:27;3.50;99.90
25963;DHT22;13760;52.588;13.406;2023-02-28T09:13:52;3.60;99.90
25963;DHT22;13760;52.588;13.406;2023-02-28T09:16:18;3.70;99.90
25963;DHT22;13760;52.588;13.406;2023-02-28T09:18:44;3.80;99.90
25963;DHT22;13760;52.588;13.406;2023-02-28T09:21:14;3.80;99.90
25963;DHT22;13760;52.588;13.406;2023-02-28T09:23:42;3.80;99.90
25963;DHT22;13760;52.588;13.406;2023-02-28T09:26:11;3.90;99.90
25963;DHT22;13760;52.588;13.406;2023-02-28T09:28:38;4.00;99.90
25963;DHT22;13760;52.588;13.406;2023-02-28T09:31:03;4.10;99.90
25963;DHT22;13760;52.588;13.406;2023-02-28T09:33:30;4.10;99.90
25963;DHT22;13760;52.588;13.406;2023-02-28T09:36:00;4.10;99.90
25963;DHT22;13760;52.588;13.406;2023-02-28T09:38:26;4.10;99.90
25963;DHT22;13760;52.588;13.406;2023-02-28T09:40:59;4.10;99.60
25963;DHT22;13760;52.588;13.406;2023-02-28T09:43:33;4.10;99.80
25963;DHT22;13760;52.588;13.406;2023-02-28T09:46:25;4.10;99.90
25963;DHT22;13760;52.588;13.406;2023-02-28T09:48:51;4.10;99.70
25963;DHT22;13760;52.588;13.406;2023-02-28T09:51:39;4.10;99.80
25963;DHT22;13760;52.588;13.406;2023-02-28T09:54:14;4.10;99.80
25963;DHT22;13760;52.588;13.406;2023-02-28T10:03:00;4.20;99.10
25963;DHT22;13760;52.588;13.406;2023-02-28T10:16:13;4.50;98.20
25963;DHT22;13760;52.588;13.406;2023-02-28T10:18:47;4.60;97.40
25963;DHT22;13760;52.588;13.406;2023-02-28T10:21:38;4.60;97.60
25963;DHT22;13760;52.588;13.406;2023-02-28T10:24:19;4.60;96.80
25963;DHT22;13760;52.588;13.406;2023-02-28T10:26:47;4.70;96.50
25963;DHT22;13760;52.588;13.406;2023-02-28T10:29:13;4.70;96.30
25963;DHT22;13760;52.588;13.406;2023-02-28T10:31:39;4.70;96.30
25963;DHT22;13760;52.588;13.406;2023-02-28T10:34:06;4.80;96.10
25963;DHT22;13760;52.588;13.406;2023-02-28T10:36:32;4.80;96.60
25963;DHT22;13760;52.588;13.406;2023-02-28T10:38:58;4.80;96.10
25963;DHT22;13760;52.588;13.406;2023-02-28T10:41:30;4.90;95.80
25963;DHT22;13760;52.588;13.406;2023-02-28T10:46:40;5.00;96.10
25963;DHT22;13760;52.588;13.406;2023-02-28T10:49:22;5.00;94.30
25963;DHT22;13760;52.588;13.406;2023-02-28T10:51:52;5.00;95.00
25963;DHT22;13760;52.588;13.406;2023-02-28T10:54:28;5.20;95.60
25963;DHT22;13760;52.588;13.406;2023-02-28T10:57:18;5.30;95.10
25963;DHT22;13760;52.588;13.406;2023-02-28T10:59:44;5.30;93.80
25963;DHT22;13760;52.588;13.406;2023-02-28T11:02:34;5.40;94.00
25963;DHT22;13760;52.588;13.406;2023-02-28T11:04:59;5.50;93.90
25963;DHT22;13760;52.588;13.406;2023-02-28T11:07:26;5.60;94.00
25963;DHT22;13760;52.588;13.406;2023-02-28T11:09:55;5.70;93.70
25963;DHT22;13760;52.588;13.406;2023-02-28T11:12:38;5.80;93.30
25963;DHT22;13760;52.588;13.406;2023-02-28T11:15:18;5.80;93.00
25963;DHT22;13760;52.588;13.406;2023-02-28T11:18:14;5.90;93.40
25963;DHT22;13760;52.588;13.406;2023-02-28T11:20:50;6.10;92.60
25963;DHT22;13760;52.588;13.406;2023-02-28T11:23:18;6.20;92.50
25963;DHT22;13760;52.588;13.406;2023-02-28T11:25:54;6.30;91.80
25963;DHT22;13760;52.588;13.406;2023-02-28T11:28:36;6.40;91.70
25963;DHT22;13760;52.588;13.406;2023-02-28T11:33:49;6.50;90.30
25963;DHT22;13760;52.588;13.406;2023-02-28T11:36:30;6.60;90.60
25963;DHT22;13760;52.588;13.406;2023-02-28T11:39:00;6.70;89.40
25963;DHT22;13760;52.588;13.406;2023-02-28T11:46:54;6.80;89.40
25963;DHT22;13760;52.588;13.406;2023-02-28T11:49:43;6.90;87.40
25963;DHT22;13760;52.588;13.406;2023-02-28T12:07:01;7.10;86.90
25963;DHT22;13760;52.588;13.406;2023-02-28T12:26:20;7.50;85.70
25963;DHT22;13760;52.588;13.406;2023-02-28T12:28:52;7.60;85.60
25963;DHT22;13760;52.588;13.406;2023-02-28T12:31:24;7.50;83.70
25963;DHT22;13760;52.588;13.406;2023-02-28T12:33:55;7.40;81.80
25963;DHT22;13760;52.588;13.406;2023-02-28T12:36:22;7.10;81.00
25963;DHT22;13760;52.588;13.406;2023-02-28T12:38:56;6.90;82.30
25963;DHT22;13760;52.588;13.406;2023-02-28T12:41:46;6.70;82.80
25963;DHT22;13760;52.588;13.406;2023-02-28T12:47:02;7.00;85.20
25963;DHT22;13760;52.588;13.406;2023-02-28T12:49:38;7.10;85.60
25963;DHT22;13760;52.588;13.406;2023-02-28T12:52:05;7.30;85.10
25963;DHT22;13760;52.588;13.406;2023-02-28T12:57:10;7.60;82.90
25963;DHT22;13760;52.588;13.406;2023-02-28T13:10:59;8.30;83.00
25963;DHT22;13760;52.588;13.406;2023-02-28T13:13:27;8.20;81.20
25963;DHT22;13760;52.588;13.406;2023-02-28T13:16:09;8.20;81.60
25963;DHT22;13760;52.588;13.406;2023-02-28T13:18:42;8.20;82.40
25963;DHT22;13760;52.588;13.406;2023-02-28T13:21:30;8.40;84.60
25963;DHT22;13760;52.588;13.406;2023-02-28T13:23:56;8.40;81.40
25963;DHT22;13760;52.588;13.406;2023-02-28T13:34:32;8.60;82.60
25963;DHT22;13760;52.588;13.406;2023-02-28T13:39:53;8.30;77.60
25963;DHT22;13760;52.588;13.406;2023-02-28T13:42:31;8.10;77.10
25963;DHT22;13760;52.588;13.406;2023-02-28T13:47:40;8.10;79.70
25963;DHT22;13760;52.588;13.406;2023-02-28T13:53:34;8.20;79.40
25963;DHT22;13760;52.588;13.406;2023-02-28T13:56:23;8.20;80.10
25963;DHT22;13760;52.588;13.406;2023-02-28T13:59:15;8.40;82.60
25963;DHT22;13760;52.588;13.406;2023-02-28T14:04:38;8.40;76.90
25963;DHT22;13760;52.588;13.406;2023-02-28T14:07:06;8.10;75.90
25963;DHT22;13760;52.588;13.406;2023-02-28T14:09:39;7.90;77.00
25963;DHT22;13760;52.588;13.406;2023-02-28T14:15:42;7.40;75.70
25963;DHT22;13760;52.588;13.406;2023-02-28T14:18:26;7.50;76.70
25963;DHT22;13760;52.588;13.406;2023-02-28T14:33:23;7.50;78.90
25963;DHT22;13760;52.588;13.406;2023-02-28T14:38:55;7.30;78.80
25963;DHT22;13760;52.588;13.406;2023-02-28T14:41:23;7.20;80.50
25963;DHT22;13760;52.588;13.406;2023-02-28T14:43:50;7.20;80.00
25963;DHT22;13760;52.588;13.406;2023-02-28T14:46:17;7.10;80.40
25963;DHT22;13760;52.588;13.406;2023-02-28T14:48:49;7.00;79.80
25963;DHT22;13760;52.588;13.406;2023-02-28T14:51:20;7.00;78.70
25963;DHT22;13760;52.588;13.406;2023-02-28T14:53:50;6.80;79.10
25963;DHT22;13760;52.588;13.406;2023-02-28T14:56:24;6.60;79.60
25963;DHT22;13760;52.588;13.406;2023-02-28T14:58:53;6.60;80.50
25963;DHT22;13760;52.588;13.406;2023-02-28T15:01:21;6.50;81.00
25963;DHT22;13760;52.588;13.406;2023-02-28T15:03:48;6.40;81.90
25963;DHT22;13760;52.588;13.406;2023-02-28T15:06:21;6.30;82.00
25963;DHT22;13760;52.588;13.406;2023-02-28T15:09:09;6.30;83.70
25963;DHT22;13760;52.588;13.406;2023-02-28T15:11:35;6.30;82.90
25963;DHT22;13760;52.588;13.406;2023-02-28T15:14:01;6.20;81.70
25963;DHT22;13760;52.588;13.406;2023-02-28T15:16:34;6.10;83.10
25963;DHT22;13760;52.588;13.406;2023-02-28T15:21:46;6.10;85.20
25963;DHT22;13760;52.588;13.406;2023-02-28T15:25:00;6.10;85.20
25963;DHT22;13760;52.588;13.406;2023-02-28T15:27:20;6.10;85.00
25963;DHT22;13760;52.588;13.406;2023-02-28T15:30:04;6.10;84.40
25963;DHT22;13760;52.588;13.406;2023-02-28T15:32:34;6.00;84.10
25963;DHT22;13760;52.588;13.406;2023-02-28T15:37:55;5.80;84.60
25963;DHT22;13760;52.588;13.406;2023-02-28T15:40:35;5.80;84.70
25963;DHT22;13760;52.588;13.406;2023-02-28T15:48:23;5.70;86.60
25963;DHT22;13760;52.588;13.406;2023-02-28T15:50:55;5.70;87.50
25963;DHT22;13760;52.588;13.406;2023-02-28T15:53:29;5.70;87.80
25963;DHT22;13760;52.588;13.406;2023-02-28T15:56:05;5.60;87.60
25963;DHT22;13760;52.588;13.406;2023-02-28T15:58:32;5.50;87.90
25963;DHT22;13760;52.588;13.406;2023-02-28T16:02:01;5.40;87.60
25963;DHT22;13760;52.588;13.406;2023-02-28T16:03:59;5.40;88.70
25963;DHT22;13760;52.588;13.406;2023-02-28T16:06:34;5.30;88.70
25963;DHT22;13760;52.588;13.406;2023-02-28T16:09:04;5.20;88.50
25963;DHT22;13760;52.588;13.406;2023-02-28T16:11:37;5.20;89.90
25963;DHT22;13760;52.588;13.406;2023-02-28T16:14:04;5.10;90.80
25963;DHT22;13760;52.588;13.406;2023-02-28T16:16:30;5.10;90.40
25963;DHT22;13760;52.588;13.406;2023-02-28T16:18:56;5.00;89.30
25963;DHT22;13760;52.588;13.406;2023-02-28T16:21:22;4.90;89.10
25963;DHT22;13760;52.588;13.406;2023-02-28T16:23:47;4.90;90.00
25963;DHT22;13760;52.588;13.406;2023-02-28T16:26:22;4.80;90.60
25963;DHT22;13760;52.588;13.406;2023-02-28T16:28:49;4.80;91.20
25963;DHT22;13760;52.588;13.406;2023-02-28T16:31:15;4.70;91.60
25963;DHT22;13760;52.588;13.406;2023-02-28T16:33:42;4.60;91.40
25963;DHT22;13760;52.588;13.406;2023-02-28T16:36:14;4.50;91.60
25963;DHT22;13760;52.588;13.406;2023-02-28T16:38:40;4.40;92.10
25963;DHT22;13760;52.588;13.406;2023-02-28T16:41:10;4.40;92.60
25963;DHT22;13760;52.588;13.406;2023-02-28T16:43:38;4.30;91.90
25963;DHT22;13760;52.588;13.406;2023-02-28T16:46:04;4.20;91.80
25963;DHT22;13760;52.588;13.406;2023-02-28T16:48:31;4.10;92.60
25963;DHT22;13760;52.588;13.406;2023-02-28T16:50:57;4.00;92.60
25963;DHT22;13760;52.588;13.406;2023-02-28T16:53:22;3.90;93.20
25963;DHT22;13760;52.588;13.406;2023-02-28T16:55:48;3.80;93.90
25963;DHT22;13760;52.588;13.406;2023-02-28T16:58:16;3.70;94.00
25963;DHT22;13760;52.588;13.406;2023-02-28T17:00:45;3.60;94.00
25963;DHT22;13760;52.588;13.406;2023-02-28T17:03:26;3.40;95.30
25963;DHT22;13760;52.588;13.406;2023-02-28T17:05:52;3.30;95.70
25963;DHT22;13760;52.588;13.406;2023-02-28T17:08:18;3.20;96.40
25963;DHT22;13760;52.588;13.406;2023-02-28T17:10:44;3.10;96.80
25963;DHT22;13760;52.588;13.406;2023-02-28T17:13:09;3.00;97.10
25963;DHT22;13760;52.588;13.406;2023-02-28T17:15:35;2.90;97.80
25963;DHT22;13760;52.588;13.406;2023-02-28T17:18:02;2.80;98.00
25963;DHT22;13760;52.588;13.406;2023-02-28T17:20:27;2.70;98.50
25963;DHT22;13760;52.588;13.406;2023-02-28T17:22:54;2.60;99.90
25963;DHT22;13760;52.588;13.406;2023-02-28T17:25:20;2.50;99.60
25963;DHT22;13760;52.588;13.406;2023-02-28T17:27:46;2.40;99.90
25963;DHT22;13760;52.588;13.406;2023-02-28T17:32:41;2.30;99.90
25963;DHT22;13760;52.588;13.406;2023-02-28T17:35:07;2.20;99.90
25963;DHT22;13760;52.588;13.406;2023-02-28T17:37:33;2.20;99.90
25963;DHT22;13760;52.588;13.406;2023-02-28T17:39:59;2.00;99.90
25963;DHT22;13760;52.588;13.406;2023-02-28T17:42:27;2.00;99.90
25963;DHT22;13760;52.588;13.406;2023-02-28T17:44:59;2.00;99.90
25963;DHT22;13760;52.588;13.406;2023-02-28T17:47:25;1.80;99.90
25963;DHT22;13760;52.588;13.406;2023-02-28T17:49:50;1.70;99.90
25963;DHT22;13760;52.588;13.406;2023-02-28T17:52:16;1.70;99.90
25963;DHT22;13760;52.588;13.406;2023-02-28T17:54:41;1.60;99.90
25963;DHT22;13760;52.588;13.406;2023-02-28T17:57:13;1.60;99.90
25963;DHT22;13760;52.588;13.406;2023-02-28T17:59:39;1.50;99.90
25963;DHT22;13760;52.588;13.406;2023-02-28T18:02:06;1.40;99.90
25963;DHT22;13760;52.588;13.406;2023-02-28T18:04:31;1.40;99.90
25963;DHT22;13760;52.588;13.406;2023-02-28T18:06:57;1.30;99.90
25963;DHT22;13760;52.588;13.406;2023-02-28T18:09:26;1.30;99.90
25963;DHT22;13760;52.588;13.406;2023-02-28T18:11:54;1.20;99.90
25963;DHT22;13760;52.588;13.406;2023-02-28T18:14:22;1.10;99.90